Ana Sayfa
METAR-TAF:

METAR-TAF

Havaalanları :

Kazablanka-V. Muhammed, Fas

Enlem: 33-22N, Boylam: 007-35W, yükseklik: 200 m

Güncel hava durumu gözlemi

Rapor saat 12:00 UTC de 22 dakika önce yapıldı.
Rüzgar kuzey/kuzeydoğudan 9 kt
Sıcaklık 39°C
Nem 21%
Basınç 1014 hPa
Görüş mesafesi 10 km veya daha fazla
1500 m altında bulut yok ve kümülonimbus yok

METAR: GMMN 061200Z 02009KT CAVOK 39/13 Q1014 NOSIG

Saat: 13:22 (12:22 UTC)

Tahmin

Rapor saat 11:00 UTC de 1 saat ve 22 dakika önce yapıldı.
Ayın 06'si saat 12 UTC'den ayın 07'si saat 18 UTC'ye kadar geçerli Tahmin
Rüzgar kuzey/kuzeydoğudan 10 kt
Görüş mesafesi 10 km veya daha fazla
1500 m altında bulut yok ve kümülonimbus yok
Dönüşüyor
ayın 06'si saat 19 UTC'den ayın 06'si saat 21 UTC'ye kadar
Rüzgar kuzey/kuzeybatıdan 4 kt
Dönüşüyor
ayın 07'si saat 10 UTC'den ayın 07'si saat 12 UTC'ye kadar
Rüzgar kuzeydan 10 kt

TAF: GMMN 061100Z 0612/0718 02010KT CAVOK BECMG 0619/0621 34004KT BECMG 0710/0712 36010KT

4.000'den fazla havaalanı için hava durumu gözlemleri ve tahminleri (METAR ve TAF raporları).

Kullanılabilir istasyonlar harita üzerinde sarı ve kırmızı noktalarla gösterilir.

İstasyonun adını görmek için fareyi noktanın üzerinde gezdirin.

Sonrasında hava gözlem ve tahminlerini görmek için tıklayın.

Haritayı değiştirmek için: yaklaştırmak için siyah artı işaretli yeşil düğmeye ve uzaklaştırmak için de eksi işaretli düğmeye hızla tıklayın; bitişik haritalar için yeşil okları kullanın.


METAR-TAF: